< < Back
Terminal Aerodrome Forecast


Current Version              Previous Versions:   1  2  3  4  5  6  7  8  9  

Terminal Aerodrome Forecast

314
FTUS44 KMRX 030520
TAFTYS
TAF
KTYS 030520Z 0306/0406 00000KT P6SM SKC
     FM031500 25005KT P6SM FEW050=

Latest METAR

965
SAUS80 KWBC 031900 RRA
MTRTYS
METAR KTYS 031853Z 35005KT 10SM FEW065 SCT250 32/14 A2995 RMK AO2 SLP129
T03170139 $


USA.gov is the U.S. government's official web portal to all federal, state and local government web resources and services.